createdAt,value
2019-04-29T00:00:44.953Z,89.03
2019-04-29T00:03:13.623Z,89.22
2019-04-29T00:05:42.107Z,89.19
2019-04-29T00:08:10.799Z,88.56
2019-04-29T00:10:39.391Z,89.26
2019-04-29T00:13:08.117Z,91.91
2019-04-29T00:15:56.456Z,90.72
2019-04-29T00:18:31.622Z,90.72
2019-04-29T00:21:00.321Z,90.63
2019-04-29T00:23:28.922Z,93.02
2019-04-29T00:25:57.434Z,91.94
2019-04-29T00:28:26.037Z,93.00
2019-04-29T00:30:54.774Z,90.85
2019-04-29T00:33:23.280Z,92.10
2019-04-29T00:35:51.784Z,88.87
2019-04-29T00:38:46.015Z,89.28
2019-04-29T00:41:37.089Z,88.94
2019-04-29T00:44:08.269Z,89.26
2019-04-29T00:46:36.738Z,91.66
2019-04-29T00:49:05.266Z,88.91
2019-04-29T00:51:33.950Z,90.01
2019-04-29T00:54:08.798Z,90.64
2019-04-29T00:56:37.391Z,90.86
2019-04-29T00:59:06.074Z,87.97
2019-04-29T01:01:34.929Z,89.39
2019-04-29T01:04:03.605Z,91.82
2019-04-29T01:06:32.095Z,88.78
2019-04-29T01:09:00.588Z,88.54
2019-04-29T01:11:29.431Z,88.05
2019-04-29T01:13:57.923Z,88.94
2019-04-29T01:16:26.497Z,91.45
2019-04-29T01:18:55.135Z,93.08
2019-04-29T01:21:23.648Z,92.06
2019-04-29T01:23:52.427Z,91.87
2019-04-29T01:26:39.072Z,94.08
2019-04-29T01:29:08.790Z,92.37
2019-04-29T01:31:37.500Z,91.52
2019-04-29T01:34:14.778Z,92.12
2019-04-29T01:36:44.694Z,91.65
2019-04-29T01:39:14.783Z,92.01
2019-04-29T01:42:03.031Z,93.20
2019-04-29T01:44:33.616Z,94.78
2019-04-29T01:47:02.294Z,92.94
2019-04-29T01:49:30.882Z,93.02
2019-04-29T01:51:59.384Z,94.73
2019-04-29T01:54:27.879Z,90.04
2019-04-29T01:56:56.386Z,88.86
2019-04-29T01:59:24.996Z,93.80
2019-04-29T02:01:53.695Z,91.43
2019-04-29T02:04:22.496Z,91.91
2019-04-29T02:06:50.967Z,90.85
2019-04-29T02:09:39.193Z,92.29
2019-04-29T02:12:07.801Z,93.88
2019-04-29T02:14:36.492Z,91.81
2019-04-29T02:17:04.993Z,92.53
2019-04-29T02:19:33.627Z,91.78
2019-04-29T02:22:26.013Z,92.30
2019-04-29T02:24:58.978Z,91.44
2019-04-29T02:27:27.565Z,93.51
2019-04-29T02:29:56.052Z,94.27
2019-04-29T02:32:24.595Z,93.66
2019-04-29T02:34:53.156Z,94.08
2019-04-29T02:37:28.196Z,96.49
2019-04-29T02:40:08.685Z,96.76
2019-04-29T02:42:43.834Z,95.45
2019-04-29T02:45:25.952Z,95.35
2019-04-29T02:47:54.554Z,94.98
2019-04-29T02:50:23.141Z,95.50
2019-04-29T02:52:51.629Z,97.40
2019-04-29T02:55:43.144Z,94.98
2019-04-29T02:58:21.041Z,94.52
2019-04-29T03:01:09.186Z,95.89
2019-04-29T03:03:57.320Z,95.34
2019-04-29T03:06:25.939Z,92.09
2019-04-29T03:08:54.509Z,93.19
2019-04-29T03:11:22.995Z,93.69
2019-04-29T03:13:51.584Z,93.68
2019-04-29T03:16:20.258Z,97.07
2019-04-29T03:18:53.841Z,95.12
2019-04-29T03:21:39.563Z,95.83
2019-04-29T03:24:08.065Z,94.21
2019-04-29T03:26:36.633Z,95.12
2019-04-29T03:29:07.746Z,94.23
2019-04-29T03:31:39.508Z,92.29
2019-04-29T03:34:06.944Z,92.88
2019-04-29T03:36:35.526Z,93.46
2019-04-29T03:39:05.080Z,94.25
2019-04-29T03:41:33.569Z,91.89
2019-04-29T03:44:02.056Z,92.74
2019-04-29T03:46:30.638Z,93.68
2019-04-29T03:48:59.216Z,97.74
2019-04-29T03:51:27.702Z,96.87
2019-04-29T03:53:56.221Z,96.96
2019-04-29T03:56:24.759Z,97.16
2019-04-29T03:58:53.265Z,96.23
2019-04-29T04:01:27.802Z,95.80
2019-04-29T04:04:10.944Z,98.02
2019-04-29T04:06:46.889Z,97.03
2019-04-29T04:09:20.554Z,97.26
2019-04-29T04:11:49.078Z,95.32
2019-04-29T04:14:17.689Z,97.36
2019-04-29T04:17:21.051Z,98.15
2019-04-29T04:19:49.823Z,96.24
2019-04-29T04:22:18.292Z,93.94
2019-04-29T04:24:46.765Z,96.08
2019-04-29T04:27:15.344Z,94.31
2019-04-29T04:29:43.906Z,94.99
2019-04-29T04:32:12.419Z,96.05
2019-04-29T04:34:40.922Z,95.35
2019-04-29T04:37:09.512Z,96.07
2019-04-29T04:39:39.929Z,94.44
2019-04-29T04:42:08.562Z,94.92
2019-04-29T04:44:55.149Z,93.97
2019-04-29T04:47:23.885Z,94.40
2019-04-29T04:49:52.453Z,95.66
2019-04-29T04:52:20.969Z,95.22
2019-04-29T04:54:51.914Z,94.24
2019-04-29T04:57:20.458Z,95.66
2019-04-29T04:59:48.964Z,96.24
2019-04-29T05:02:17.570Z,96.90
2019-04-29T05:04:46.154Z,96.76
2019-04-29T05:07:14.725Z,96.54
2019-04-29T05:09:43.280Z,97.41
2019-04-29T05:12:14.092Z,95.95
2019-04-29T05:14:42.339Z,95.15
2019-04-29T05:17:10.955Z,96.04
2019-04-29T05:19:39.636Z,95.70
2019-04-29T05:22:08.120Z,95.89
2019-04-29T05:24:36.770Z,96.52
2019-04-29T05:27:05.336Z,93.87
2019-04-29T05:29:33.916Z,94.98
2019-04-29T05:32:02.461Z,95.84
2019-04-29T05:34:32.987Z,95.73
2019-04-29T05:37:18.347Z,94.01
2019-04-29T05:39:46.925Z,95.46
2019-04-29T05:42:17.094Z,94.26
2019-04-29T05:45:02.199Z,94.69
2019-04-29T05:47:38.978Z,94.36
2019-04-29T05:50:26.021Z,94.57
2019-04-29T05:52:59.768Z,94.79
2019-04-29T05:55:28.316Z,95.65
2019-04-29T05:58:10.388Z,96.48
2019-04-29T06:00:40.819Z,95.75
2019-04-29T06:03:09.417Z,95.64
2019-04-29T06:05:38.136Z,94.89
2019-04-29T06:08:06.765Z,94.07
2019-04-29T06:10:35.296Z,94.71
2019-04-29T06:13:03.882Z,94.91
2019-04-29T06:15:32.263Z,94.28
2019-04-29T06:18:00.964Z,93.59
2019-04-29T06:20:29.698Z,94.29
2019-04-29T06:22:58.312Z,93.13
2019-04-29T06:25:26.928Z,93.22
2019-04-29T06:27:55.679Z,93.88
2019-04-29T06:30:24.384Z,93.90
2019-04-29T06:32:52.982Z,94.54
2019-04-29T06:35:21.624Z,93.48
2019-04-29T06:37:50.210Z,94.30
2019-04-29T06:40:18.806Z,94.83
2019-04-29T06:42:49.500Z,95.57
2019-04-29T06:45:17.944Z,95.64
2019-04-29T06:47:46.578Z,94.79
2019-04-29T06:50:15.316Z,93.23
2019-04-29T06:52:43.881Z,91.53
2019-04-29T06:55:12.899Z,90.51
2019-04-29T06:57:41.425Z,89.43
2019-04-29T07:00:10.649Z,87.81
2019-04-29T07:02:39.210Z,86.36
2019-04-29T07:05:07.782Z,85.93
2019-04-29T07:07:36.397Z,84.26
2019-04-29T07:10:05.326Z,84.04
2019-04-29T07:12:33.858Z,83.77
2019-04-29T07:15:02.630Z,82.22
2019-04-29T07:17:31.356Z,82.14
2019-04-29T07:20:01.957Z,81.12
2019-04-29T07:22:31.234Z,80.92
2019-04-29T07:25:00.072Z,81.23
2019-04-29T07:27:28.545Z,81.22
2019-04-29T07:29:57.053Z,79.09
2019-04-29T07:32:25.653Z,79.73
2019-04-29T07:34:54.232Z,79.15
2019-04-29T07:37:22.780Z,77.24
2019-04-29T07:39:51.363Z,76.99
2019-04-29T07:42:19.763Z,78.23
2019-04-29T07:45:06.584Z,76.83
2019-04-29T07:47:36.451Z,77.16
2019-04-29T07:50:06.208Z,75.82
2019-04-29T07:52:34.770Z,74.33
2019-04-29T07:55:03.556Z,74.18
2019-04-29T07:57:32.113Z,73.90
2019-04-29T08:00:00.796Z,72.85
2019-04-29T08:02:29.463Z,72.13
2019-04-29T08:04:58.058Z,71.73
2019-04-29T08:07:26.850Z,71.58
2019-04-29T08:09:55.931Z,70.85
2019-04-29T08:12:24.952Z,69.88
2019-04-29T08:14:58.519Z,69.89
2019-04-29T08:17:24.616Z,70.39
2019-04-29T08:19:53.202Z,68.80
2019-04-29T08:22:22.862Z,68.31
2019-04-29T08:24:52.266Z,65.59
2019-04-29T08:27:20.816Z,65.70
2019-04-29T08:29:49.395Z,65.79
2019-04-29T08:32:17.998Z,65.84
2019-04-29T08:34:46.582Z,64.27
2019-04-29T08:37:15.174Z,63.90
2019-04-29T08:39:43.772Z,64.32
2019-04-29T08:42:15.785Z,64.40
2019-04-29T08:45:03.928Z,64.89
2019-04-29T08:47:34.249Z,63.65
2019-04-29T08:50:03.081Z,61.87
2019-04-29T08:52:31.839Z,61.91
2019-04-29T08:55:00.441Z,61.81
2019-04-29T08:57:31.727Z,61.65
2019-04-29T08:59:59.421Z,59.86
2019-04-29T09:02:34.997Z,59.80
2019-04-29T09:04:58.723Z,60.88
2019-04-29T09:07:27.235Z,60.86
2019-04-29T09:10:01.403Z,61.58
2019-04-29T09:12:29.398Z,62.12
2019-04-29T09:14:57.055Z,62.24
2019-04-29T09:17:25.635Z,62.16
2019-04-29T09:19:54.311Z,62.77
2019-04-29T09:22:24.800Z,61.38
2019-04-29T09:25:30.996Z,61.25
2019-04-29T09:28:01.878Z,60.91
2019-04-29T09:30:30.601Z,60.85
2019-04-29T09:32:59.080Z,60.67
2019-04-29T09:35:28.880Z,61.15
2019-04-29T09:37:58.399Z,61.21
2019-04-29T09:40:30.513Z,61.79
2019-04-29T09:43:32.844Z,61.49
2019-04-29T09:46:07.768Z,61.53
2019-04-29T09:48:36.496Z,62.21
2019-04-29T09:51:16.692Z,62.34
2019-04-29T09:53:35.558Z,62.96
2019-04-29T09:56:04.257Z,62.65
2019-04-29T09:58:32.890Z,62.52
2019-04-29T10:01:23.852Z,63.05
2019-04-29T10:03:59.339Z,63.74
2019-04-29T10:06:31.038Z,64.31
2019-04-29T10:08:59.523Z,64.75
2019-04-29T10:11:28.162Z,64.47
2019-04-29T10:13:56.952Z,64.90
2019-04-29T10:16:54.248Z,64.27
2019-04-29T10:19:40.320Z,64.11
2019-04-29T10:22:08.827Z,63.64
2019-04-29T10:24:37.537Z,64.35
2019-04-29T10:27:07.323Z,64.62
2019-04-29T10:29:37.204Z,64.04
2019-04-29T10:32:08.587Z,63.58
2019-04-29T10:34:37.266Z,63.32
2019-04-29T10:37:06.684Z,64.50
2019-04-29T10:39:54.929Z,63.39
2019-04-29T10:42:35.016Z,63.60
2019-04-29T10:45:20.495Z,63.06
2019-04-29T10:48:11.450Z,63.56
2019-04-29T10:50:41.183Z,63.48
2019-04-29T10:53:10.886Z,62.62
2019-04-29T10:55:40.833Z,61.92
2019-04-29T10:58:09.517Z,62.82
2019-04-29T11:02:01.333Z,63.29
2019-04-29T11:04:31.600Z,64.19
2019-04-29T11:07:13.802Z,63.03
2019-04-29T11:09:52.748Z,63.09
2019-04-29T11:12:21.522Z,62.47
2019-04-29T11:14:50.101Z,62.93
2019-04-29T11:17:20.256Z,61.87
2019-04-29T11:19:48.748Z,61.96
2019-04-29T11:22:21.014Z,62.95
2019-04-29T11:25:18.189Z,61.87
2019-04-29T11:27:50.382Z,61.98
2019-04-29T11:30:22.323Z,60.86
2019-04-29T11:33:00.046Z,61.54
2019-04-29T11:35:35.721Z,60.86
2019-04-29T11:38:08.275Z,60.29
2019-04-29T11:40:43.738Z,61.48
2019-04-29T11:43:10.957Z,62.31
2019-04-29T11:45:40.490Z,61.10
2019-04-29T11:48:09.462Z,61.04
2019-04-29T11:50:50.079Z,59.83
2019-04-29T11:53:18.989Z,59.20
2019-04-29T11:55:47.630Z,58.36
2019-04-29T11:58:45.059Z,59.26
2019-04-29T12:01:39.213Z,58.15
2019-04-29T12:04:07.446Z,56.84
2019-04-29T12:06:36.461Z,58.39
2019-04-29T12:09:07.098Z,58.16
2019-04-29T12:11:37.255Z,58.38
2019-04-29T12:14:44.164Z,57.43
2019-04-29T12:17:31.133Z,54.02
2019-04-29T12:20:07.686Z,55.21
2019-04-29T12:22:47.738Z,54.19
2019-04-29T12:25:07.466Z,54.94
2019-04-29T12:27:36.184Z,54.71
2019-04-29T12:30:06.943Z,55.10
2019-04-29T12:32:52.629Z,55.70
2019-04-29T12:35:36.096Z,54.98
2019-04-29T12:38:39.992Z,53.41
2019-04-29T12:41:32.198Z,54.65
2019-04-29T12:44:05.002Z,53.51
2019-04-29T12:46:42.608Z,53.41
2019-04-29T12:49:13.586Z,54.84
2019-04-29T12:51:41.993Z,54.58
2019-04-29T12:54:10.816Z,52.57
2019-04-29T12:56:43.232Z,52.23
2019-04-29T12:59:11.068Z,54.73
2019-04-29T13:02:02.334Z,53.63
2019-04-29T13:04:45.139Z,53.89
2019-04-29T13:07:20.936Z,54.90
2019-04-29T13:09:50.725Z,54.64
2019-04-29T13:12:20.168Z,54.38
2019-04-29T13:15:07.857Z,54.80
2019-04-29T13:17:44.605Z,54.15
2019-04-29T13:20:13.591Z,54.09
2019-04-29T13:22:42.400Z,54.05
2019-04-29T13:25:11.301Z,51.46
2019-04-29T13:27:40.098Z,51.05
2019-04-29T13:30:15.180Z,52.32
2019-04-29T13:32:41.834Z,50.02
2019-04-29T13:35:12.709Z,47.10
2019-04-29T13:37:41.396Z,47.20
2019-04-29T13:40:10.708Z,47.19
2019-04-29T13:42:39.379Z,47.17
2019-04-29T13:45:13.484Z,47.07
2019-04-29T13:48:09.982Z,46.66
2019-04-29T13:50:51.161Z,46.67
2019-04-29T13:53:19.835Z,46.11
2019-04-29T13:55:50.025Z,47.42
2019-04-29T13:58:22.227Z,45.74
2019-04-29T14:01:22.156Z,46.80
2019-04-29T14:04:24.260Z,50.52
2019-04-29T14:06:56.662Z,46.44
2019-04-29T14:09:19.227Z,46.37
2019-04-29T14:12:00.965Z,48.82
2019-04-29T14:14:22.813Z,47.98
2019-04-29T14:16:49.358Z,48.52
2019-04-29T14:19:20.502Z,48.70
2019-04-29T14:21:48.586Z,49.69
2019-04-29T14:24:17.206Z,48.20
2019-04-29T14:26:47.866Z,48.38
2019-04-29T14:29:16.534Z,50.37
2019-04-29T14:31:48.052Z,48.00
2019-04-29T14:34:30.656Z,48.43
2019-04-29T14:37:18.340Z,46.07
2019-04-29T14:39:36.678Z,45.37
2019-04-29T14:42:03.905Z,46.37
2019-04-29T14:44:41.233Z,44.87
2019-04-29T14:47:28.066Z,45.66
2019-04-29T14:49:58.964Z,45.23
2019-04-29T14:52:27.702Z,46.47
2019-04-29T14:54:56.262Z,44.40
2019-04-29T14:57:24.969Z,44.44
2019-04-29T14:59:53.946Z,44.55
2019-04-29T15:02:24.828Z,44.23
2019-04-29T15:04:54.067Z,47.18
2019-04-29T15:07:22.904Z,43.98
2019-04-29T15:09:55.822Z,50.14
2019-04-29T15:12:51.886Z,45.86
2019-04-29T15:15:41.928Z,47.74
2019-04-29T15:18:48.578Z,49.90
2019-04-29T15:21:31.471Z,50.39
2019-04-29T15:23:48.716Z,46.50
2019-04-29T15:26:20.294Z,46.03
2019-04-29T15:28:51.093Z,48.89
2019-04-29T15:31:20.845Z,50.92
2019-04-29T15:33:50.266Z,47.90
2019-04-29T15:36:19.174Z,47.43
2019-04-29T15:39:08.276Z,47.62
2019-04-29T15:41:18.921Z,48.64
2019-04-29T15:43:48.382Z,47.62
2019-04-29T15:46:17.411Z,45.50
2019-04-29T15:48:46.314Z,46.45
2019-04-29T15:51:15.051Z,47.48
2019-04-29T15:53:44.046Z,47.77
2019-04-29T15:56:27.668Z,47.45
2019-04-29T15:58:43.384Z,48.29
2019-04-29T16:01:17.410Z,48.02
2019-04-29T16:03:43.107Z,48.75
2019-04-29T16:06:44.084Z,49.39
2019-04-29T16:09:23.570Z,48.92
2019-04-29T16:12:15.414Z,48.55
2019-04-29T16:14:48.896Z,47.97
2019-04-29T16:17:14.406Z,47.07
2019-04-29T16:19:43.520Z,47.26
2019-04-29T16:22:12.886Z,47.46
2019-04-29T16:24:42.642Z,47.65
2019-04-29T16:27:11.341Z,49.15
2019-04-29T16:29:39.924Z,49.59
2019-04-29T16:32:11.300Z,48.43
2019-04-29T16:34:45.136Z,48.43
2019-04-29T16:37:10.402Z,47.65
2019-04-29T16:39:39.131Z,47.63
2019-04-29T16:42:28.746Z,47.13
2019-04-29T16:44:57.565Z,48.30
2019-04-29T16:47:26.373Z,47.93
2019-04-29T16:49:57.578Z,48.17
2019-04-29T16:52:26.073Z,50.90
2019-04-29T16:54:59.165Z,48.74
2019-04-29T16:57:25.285Z,50.20
2019-04-29T16:59:53.922Z,53.04
2019-04-29T17:02:23.227Z,49.31
2019-04-29T17:04:51.820Z,51.48
2019-04-29T17:07:20.685Z,48.26
2019-04-29T17:10:21.371Z,50.17
2019-04-29T17:12:50.869Z,50.77
2019-04-29T17:17:50.010Z,51.37
2019-04-29T17:20:18.906Z,50.40
2019-04-29T17:22:47.539Z,50.63
2019-04-29T17:25:17.859Z,50.94
2019-04-29T17:27:59.431Z,54.02
2019-04-29T17:30:53.991Z,52.40
2019-04-29T17:33:36.173Z,52.11
2019-04-29T17:35:14.559Z,49.22
2019-04-29T17:36:05.625Z,55.07
2019-04-29T17:38:34.430Z,52.97
2019-04-29T17:41:03.388Z,54.18
2019-04-29T17:44:00.789Z,56.01
2019-04-29T17:46:40.111Z,53.55
2019-04-29T17:49:17.633Z,54.25
2019-04-29T17:51:46.937Z,54.82
2019-04-29T17:54:20.820Z,55.67
2019-04-29T17:57:25.601Z,56.22
2019-04-29T18:00:00.562Z,56.54
2019-04-29T18:03:00.855Z,57.39
2019-04-29T18:05:52.223Z,57.33
2019-04-29T18:08:20.032Z,58.15
2019-04-29T18:10:52.220Z,58.48
2019-04-29T18:13:24.704Z,59.61
2019-04-29T18:16:00.956Z,59.02
2019-04-29T18:18:43.965Z,59.22
2019-04-29T18:21:28.869Z,60.02
2019-04-29T18:24:06.247Z,59.98
2019-04-29T18:26:39.490Z,60.24
2019-04-29T18:29:08.217Z,59.79
2019-04-29T18:31:36.790Z,62.33
2019-04-29T18:34:05.634Z,59.25
2019-04-29T18:36:35.173Z,59.32
2019-04-29T18:39:06.957Z,60.02
2019-04-29T18:41:35.528Z,59.49
2019-04-29T18:44:05.287Z,58.88
2019-04-29T18:46:35.222Z,59.12
2019-04-29T18:49:06.534Z,60.32
2019-04-29T18:51:34.994Z,60.09
2019-04-29T18:54:06.072Z,59.98
2019-04-29T18:56:36.435Z,61.70
2019-04-29T18:59:05.438Z,62.04
2019-04-29T19:01:34.930Z,59.90
2019-04-29T19:04:16.760Z,60.54
2019-04-29T19:06:42.535Z,60.05
2019-04-29T19:09:17.795Z,60.30
2019-04-29T19:11:42.197Z,60.21
2019-04-29T19:14:11.175Z,60.99
2019-04-29T19:16:39.889Z,60.59
2019-04-29T19:19:08.925Z,61.16
2019-04-29T19:21:37.806Z,62.55
2019-04-29T19:24:06.448Z,61.15
2019-04-29T19:26:35.762Z,62.15
2019-04-29T19:29:06.234Z,62.25
2019-04-29T19:31:36.838Z,63.43
2019-04-29T19:34:05.633Z,64.13
2019-04-29T19:36:35.013Z,63.30
2019-04-29T19:39:06.203Z,62.95
2019-04-29T19:41:35.555Z,65.26
2019-04-29T19:44:05.809Z,63.99
2019-04-29T19:46:38.282Z,63.64
2019-04-29T19:49:09.683Z,63.71
2019-04-29T19:51:39.297Z,63.98
2019-04-29T19:54:06.529Z,64.58
2019-04-29T19:56:36.237Z,64.61
2019-04-29T19:59:12.058Z,64.94
2019-04-29T20:01:37.877Z,65.04
2019-04-29T20:04:24.316Z,64.95
2019-04-29T20:06:58.559Z,65.00
2019-04-29T20:09:25.238Z,65.47
2019-04-29T20:11:55.846Z,65.91
2019-04-29T20:14:30.182Z,65.64
2019-04-29T20:17:17.642Z,65.71
2019-04-29T20:19:56.715Z,65.67
2019-04-29T20:22:22.354Z,66.10
2019-04-29T20:24:51.407Z,66.09
2019-04-29T20:27:20.802Z,66.44
2019-04-29T20:29:50.181Z,66.18
2019-04-29T20:32:22.377Z,66.79
2019-04-29T20:34:49.618Z,66.04
2019-04-29T20:37:19.822Z,66.48
2019-04-29T20:39:52.081Z,66.65
2019-04-29T20:42:19.663Z,66.62
2019-04-29T20:44:49.479Z,67.12
2019-04-29T20:47:23.020Z,67.48
2019-04-29T20:49:48.919Z,68.11
2019-04-29T20:52:42.925Z,68.03
2019-04-29T20:55:12.469Z,67.87
2019-04-29T20:57:41.185Z,67.89
2019-04-29T21:00:10.362Z,68.95
2019-04-29T21:02:39.355Z,68.39
2019-04-29T21:05:10.042Z,69.64
2019-04-29T21:07:39.339Z,68.25
2019-04-29T21:10:08.524Z,68.61
2019-04-29T21:13:03.038Z,68.88
2019-04-29T21:15:36.663Z,68.92
2019-04-29T21:18:05.480Z,69.12
2019-04-29T21:20:35.015Z,68.78
2019-04-29T21:23:03.899Z,71.00
2019-04-29T21:25:32.494Z,69.87
2019-04-29T21:28:02.345Z,69.27
2019-04-29T21:30:35.563Z,68.83
2019-04-29T21:33:01.571Z,69.76
2019-04-29T21:35:37.877Z,69.40
2019-04-29T21:41:25.526Z,69.82
2019-04-29T21:43:56.055Z,70.38
2019-04-29T21:46:29.133Z,70.81
2019-04-29T21:48:55.704Z,71.23
2019-04-29T21:51:25.551Z,70.80
2019-04-29T21:53:56.022Z,71.82
2019-04-29T21:56:25.835Z,71.28
2019-04-29T21:58:54.500Z,71.53
2019-04-29T22:01:25.034Z,71.77
2019-04-29T22:03:53.433Z,72.19
2019-04-29T22:06:24.787Z,72.37
2019-04-29T22:08:54.269Z,72.24
2019-04-29T22:11:22.966Z,71.98
2019-04-29T22:13:51.588Z,72.35
2019-04-29T22:16:20.112Z,73.19
2019-04-29T22:18:52.127Z,73.60
2019-04-29T22:21:22.134Z,74.47
2019-04-29T22:23:51.093Z,74.22
2019-04-29T22:26:23.224Z,74.80
2019-04-29T22:28:53.237Z,75.11
2019-04-29T22:31:21.432Z,75.14
2019-04-29T22:33:50.041Z,75.16
2019-04-29T22:36:18.545Z,74.52
2019-04-29T22:38:48.654Z,74.97
2019-04-29T22:41:26.738Z,75.06
2019-04-29T22:43:59.341Z,75.31
2019-04-29T22:46:27.938Z,75.22
2019-04-29T22:48:56.433Z,75.33
2019-04-29T22:51:25.444Z,75.11
2019-04-29T22:53:55.678Z,75.00
2019-04-29T22:56:27.565Z,75.52
2019-04-29T22:58:55.946Z,75.54
2019-04-29T23:01:25.896Z,75.77
2019-04-29T23:03:55.432Z,75.15
2019-04-29T23:06:25.865Z,74.82
2019-04-29T23:08:56.149Z,75.40
2019-04-29T23:11:24.987Z,74.83
2019-04-29T23:13:55.314Z,75.19
2019-04-29T23:16:23.862Z,75.60
2019-04-29T23:18:52.550Z,75.46
2019-04-29T23:21:50.481Z,75.25
2019-04-29T23:24:33.372Z,75.50
2019-04-29T23:27:02.027Z,75.82
2019-04-29T23:29:30.625Z,75.66
2019-04-29T23:31:59.606Z,76.08
2019-04-29T23:34:29.706Z,76.39
2019-04-29T23:36:58.207Z,75.62
2019-04-29T23:39:26.794Z,76.21
2019-04-29T23:41:55.511Z,76.38
2019-04-29T23:44:24.221Z,76.80
2019-04-29T23:46:52.808Z,78.01
2019-04-29T23:49:21.301Z,77.29
2019-04-29T23:51:49.956Z,78.71
2019-04-29T23:54:18.555Z,77.03
2019-04-29T23:57:16.346Z,78.01
